Whitehaven, Maryland
Current Conditions -  °F | °C
As of 10:54 AM on Saturday 25 Oct 2014 (Local Time) from KSBY Reporting Station
Clear Clear  
Wind Chill: 65°   Ceiling: Unl
Heat Index: 65°   Visibility: 10mi
Dew Point: 43°   Wind: 9mph
Humidity: 45%   Direction: 310°NW
Pressure: 29.95"   Gusts: NA
Location:  38.3297°N, 75.7943°W
Report Text: KSBY 251454Z 31008KT 10SM CLR 18/06 A2995 RMK AO2 SLP143 T01830061 58001
Loading
Personal Weather Stations






























Interactive Weather Map
Tropical Storm Tracking
New forecast layout! Learn more

10-Day Weather Forecast

Advertisements
Track Severe Weather on mobile